createdAt,value
2017-11-01T00:00:44.289Z,8.5
2017-11-01T00:01:43.297Z,8.5
2017-11-01T00:02:42.443Z,8.6
2017-11-01T00:03:41.451Z,8.5
2017-11-01T00:04:40.964Z,8.6
2017-11-01T00:05:39.609Z,8.6
2017-11-01T00:06:38.896Z,8.6
2017-11-01T00:07:37.913Z,8.6
2017-11-01T00:08:37.055Z,8.6
2017-11-01T00:09:36.215Z,8.6
2017-11-01T00:10:35.245Z,8.6
2017-11-01T00:11:34.527Z,8.6
2017-11-01T00:12:33.546Z,8.6
2017-11-01T00:13:32.563Z,8.6
2017-11-01T00:14:31.782Z,8.6
2017-11-01T00:15:30.799Z,8.6
2017-11-01T00:16:30.059Z,8.6
2017-11-01T00:17:28.949Z,8.6
2017-11-01T00:18:28.090Z,8.6
2017-11-01T00:19:27.101Z,8.6
2017-11-01T00:20:26.249Z,8.6
2017-11-01T00:21:25.531Z,8.6
2017-11-01T00:22:24.541Z,8.7
2017-11-01T00:23:23.554Z,8.7
2017-11-01T00:24:22.732Z,8.7
2017-11-01T00:25:21.612Z,8.7
2017-11-01T00:26:21.259Z,8.7
2017-11-01T00:27:20.549Z,8.7
2017-11-01T00:28:19.062Z,8.7
2017-11-01T00:29:18.205Z,8.7
2017-11-01T00:30:17.858Z,8.6
2017-11-01T00:31:16.635Z,8.6
2017-11-01T00:32:15.645Z,8.6
2017-11-01T00:33:14.790Z,8.7
2017-11-01T00:34:14.169Z,8.7
2017-11-01T00:35:13.309Z,8.7
2017-11-01T00:36:12.065Z,8.7
2017-11-01T00:37:11.206Z,8.6
2017-11-01T00:38:10.453Z,8.7
2017-11-01T00:39:09.333Z,8.7
2017-11-01T00:40:08.865Z,8.7
2017-11-01T00:42:06.764Z,8.7
2017-11-01T00:43:06.009Z,8.7
2017-11-01T00:44:04.758Z,8.7
2017-11-01T00:45:04.399Z,8.7
2017-11-01T00:46:03.279Z,8.7
2017-11-01T00:47:02.558Z,8.7
2017-11-01T00:48:01.577Z,8.6
2017-11-01T00:49:00.854Z,8.6
2017-11-01T00:49:59.625Z,8.6
2017-11-01T00:50:58.741Z,8.7
2017-11-01T00:51:57.995Z,8.7
2017-11-01T00:52:57.143Z,8.7
2017-11-01T00:53:55.926Z,8.6
2017-11-01T00:54:55.204Z,8.6
2017-11-01T00:55:54.221Z,8.6
2017-11-01T00:56:53.424Z,8.6
2017-11-01T00:57:52.312Z,8.6
2017-11-01T00:58:51.965Z,8.6
2017-11-01T00:59:51.116Z,8.6
2017-11-01T01:00:49.891Z,8.6
2017-11-01T01:01:49.027Z,8.6
2017-11-01T01:02:47.908Z,8.6
2017-11-01T01:03:46.915Z,8.6
2017-11-01T01:04:46.176Z,8.6
2017-11-01T01:05:45.323Z,8.6
2017-11-01T01:06:15.643Z,8.6
2017-11-01T01:07:43.838Z,8.6
2017-11-01T01:08:42.719Z,8.6
2017-11-01T01:09:41.729Z,8.6
2017-11-01T01:10:41.011Z,8.6
2017-11-01T01:11:40.427Z,8.6
2017-11-01T01:12:39.174Z,8.6
2017-11-01T01:13:38.448Z,8.6
2017-11-01T01:14:37.598Z,8.6
2017-11-01T01:15:36.235Z,8.6
2017-11-01T01:16:35.378Z,8.6
2017-11-01T01:17:35.176Z,8.6
2017-11-01T01:18:33.813Z,8.6
2017-11-01T01:19:32.830Z,8.6
2017-11-01T01:20:31.979Z,8.6
2017-11-01T01:21:31.351Z,8.6
2017-11-01T01:22:30.229Z,8.6
2017-11-01T01:23:29.612Z,8.6
2017-11-01T01:24:28.382Z,8.6
2017-11-01T01:25:28.073Z,8.6
2017-11-01T01:26:26.843Z,8.6
2017-11-01T01:27:25.727Z,8.6
2017-11-01T01:29:24.133Z,8.6
2017-11-01T01:30:23.411Z,8.6
2017-11-01T01:31:22.293Z,8.6
2017-11-01T01:32:21.584Z,8.6
2017-11-01T01:33:20.587Z,8.6
2017-11-01T01:34:19.873Z,8.6
2017-11-01T01:35:19.175Z,8.6
2017-11-01T01:36:17.815Z,8.6
2017-11-01T01:37:17.324Z,8.6
2017-11-01T01:38:16.475Z,8.6
2017-11-01T01:39:15.001Z,8.6
2017-11-01T01:40:14.013Z,8.6
2017-11-01T01:41:13.673Z,8.6
2017-11-01T01:42:12.715Z,8.6
2017-11-01T01:43:11.488Z,8.6
2017-11-01T01:44:10.633Z,8.6
2017-11-01T01:45:09.789Z,8.6
2017-11-01T01:46:09.200Z,8.6
2017-11-01T01:47:08.215Z,8.6
2017-11-01T01:48:07.497Z,8.6
2017-11-01T01:48:37.699Z,8.6
2017-11-01T01:49:08.167Z,8.6
2017-11-01T01:50:05.574Z,8.6
2017-11-01T01:51:04.495Z,8.6
2017-11-01T01:52:04.025Z,8.6
2017-11-01T01:53:02.539Z,8.6
2017-11-01T01:55:00.939Z,8.6
2017-11-01T01:56:00.086Z,8.6
2017-11-01T01:56:59.363Z,8.6
2017-11-01T01:57:58.513Z,8.6
2017-11-01T01:58:57.159Z,8.6
2017-11-01T01:59:56.804Z,8.6
2017-11-01T02:00:55.957Z,8.6
2017-11-01T02:01:54.866Z,8.6
2017-11-01T02:02:54.160Z,8.6
2017-11-01T02:03:52.940Z,8.6
2017-11-01T02:04:52.083Z,8.6
2017-11-01T02:05:51.363Z,8.6
2017-11-01T02:06:50.508Z,8.6
2017-11-01T02:07:49.396Z,8.6
2017-11-01T02:08:48.421Z,8.6
2017-11-01T02:09:48.070Z,8.6
2017-11-01T02:11:46.101Z,8.7
2017-11-01T02:12:45.114Z,8.7
2017-11-01T02:13:44.407Z,8.6
2017-11-01T02:14:43.136Z,8.6
2017-11-01T02:15:42.159Z,8.6
2017-11-01T02:16:41.303Z,8.6
2017-11-01T02:17:40.588Z,8.6
2017-11-01T02:18:39.737Z,8.6
2017-11-01T02:19:38.758Z,8.6
2017-11-01T02:20:37.899Z,8.6
2017-11-01T02:21:37.178Z,8.6
2017-11-01T02:22:35.957Z,8.6
2017-11-01T02:23:35.105Z,8.5
2017-11-01T02:24:34.625Z,8.6
2017-11-01T02:25:33.409Z,8.5
2017-11-01T02:26:32.421Z,8.5
2017-11-01T02:27:31.809Z,8.5
2017-11-01T02:28:31.088Z,8.5
2017-11-01T02:29:29.985Z,8.5
2017-11-01T02:30:29.274Z,8.5
2017-11-01T02:31:28.441Z,8.5
2017-11-01T02:32:27.097Z,8.5
2017-11-01T02:33:26.380Z,8.5
2017-11-01T02:34:25.535Z,8.4
2017-11-01T02:35:24.709Z,8.4
2017-11-01T02:36:23.600Z,8.4
2017-11-01T02:37:22.754Z,8.4
2017-11-01T02:38:22.178Z,8.4
2017-11-01T02:39:21.193Z,8.4
2017-11-01T02:42:18.238Z,8.4
2017-11-01T02:43:17.753Z,8.4
2017-11-01T02:44:16.395Z,8.3
2017-11-01T02:45:15.913Z,8.3
2017-11-01T02:46:14.847Z,8.3
2017-11-01T02:47:13.864Z,8.3
2017-11-01T02:48:12.742Z,8.3
2017-11-01T02:50:53.897Z,8.3
2017-11-01T02:53:08.537Z,8.3
2017-11-01T02:54:07.831Z,8.3
2017-11-01T02:55:06.855Z,8.3
2017-11-01T02:56:06.150Z,8.3
2017-11-01T02:57:04.928Z,8.3
2017-11-01T02:58:04.083Z,8.3
2017-11-01T02:59:03.239Z,8.3
2017-11-01T03:00:02.540Z,8.2
2017-11-01T03:01:01.578Z,8.2
2017-11-01T03:02:00.863Z,8.2
2017-11-01T03:02:59.500Z,8.2
2017-11-01T03:03:58.637Z,8.2
2017-11-01T03:04:57.791Z,8.2
2017-11-01T03:05:57.084Z,8.2
2017-11-01T03:06:56.226Z,8.2
2017-11-01T03:07:55.378Z,8.1
2017-11-01T03:08:25.714Z,8.1
2017-11-01T03:08:56.300Z,8.1
2017-11-01T03:09:53.572Z,8.1
2017-11-01T03:10:52.350Z,8.1
2017-11-01T03:11:51.630Z,8.1
2017-11-01T03:12:50.908Z,8.1
2017-11-01T03:13:49.806Z,8.1
2017-11-01T03:14:48.682Z,8.1
2017-11-01T03:15:48.464Z,8
2017-11-01T03:16:47.249Z,8
2017-11-01T03:17:46.001Z,8
2017-11-01T03:19:44.533Z,8
2017-11-01T03:20:43.809Z,7.9
2017-11-01T03:21:42.950Z,7.9
2017-11-01T03:22:41.828Z,7.9
2017-11-01T03:23:40.713Z,7.9
2017-11-01T03:24:39.861Z,7.9
2017-11-01T03:25:39.274Z,7.9
2017-11-01T03:26:38.425Z,7.9
2017-11-01T03:27:37.432Z,7.9
2017-11-01T03:28:36.307Z,7.9
2017-11-01T03:29:35.697Z,7.9
2017-11-01T03:30:34.716Z,7.9
2017-11-01T03:31:33.865Z,7.8
2017-11-01T03:32:32.879Z,7.8
2017-11-01T03:33:32.157Z,7.8
2017-11-01T03:34:31.052Z,7.8
2017-11-01T03:35:30.431Z,7.8
2017-11-01T03:36:29.451Z,7.8
2017-11-01T03:37:28.729Z,7.8
2017-11-01T03:38:27.741Z,7.8
2017-11-01T03:39:26.888Z,7.8
2017-11-01T03:40:25.525Z,7.8
2017-11-01T03:41:24.542Z,7.8
2017-11-01T03:42:24.052Z,7.8
2017-11-01T03:43:23.197Z,7.8
2017-11-01T03:45:21.087Z,7.7
2017-11-01T03:46:20.607Z,7.7
2017-11-01T03:47:19.619Z,7.7
2017-11-01T03:48:18.768Z,7.7
2017-11-01T03:49:17.544Z,7.7
2017-11-01T03:50:16.689Z,7.7
2017-11-01T03:51:15.833Z,7.7
2017-11-01T03:52:15.234Z,7.7
2017-11-01T03:53:13.744Z,7.7
2017-11-01T03:54:13.015Z,7.7
2017-11-01T03:55:12.153Z,7.7
2017-11-01T03:56:11.297Z,7.7
2017-11-01T03:57:10.324Z,7.7
2017-11-01T03:58:09.626Z,7.7
2017-11-01T03:59:09.048Z,7.7
2017-11-01T04:00:07.698Z,7.7
2017-11-01T04:01:07.114Z,7.7
2017-11-01T04:02:05.870Z,7.7
2017-11-01T04:03:04.887Z,7.7
2017-11-01T04:05:03.190Z,7.7
2017-11-01T04:06:02.208Z,7.7
2017-11-01T04:07:01.490Z,7.7
2017-11-01T04:08:00.771Z,7.7
2017-11-01T04:08:59.910Z,7.7
2017-11-01T04:09:58.921Z,7.7
2017-11-01T04:10:58.250Z,7.7
2017-11-01T04:11:57.117Z,7.7
2017-11-01T04:12:56.282Z,7.7
2017-11-01T04:13:55.316Z,7.7
2017-11-01T04:15:53.072Z,7.7
2017-11-01T04:16:52.456Z,7.7
2017-11-01T04:17:51.600Z,7.7
2017-11-01T04:18:50.752Z,7.7
2017-11-01T04:19:50.027Z,7.7
2017-11-01T04:20:48.675Z,7.7
2017-11-01T04:21:48.198Z,7.7
2017-11-01T04:22:47.217Z,7.7
2017-11-01T04:23:45.861Z,7.7
2017-11-01T04:24:45.246Z,7.7
2017-11-01T04:25:44.133Z,7.7
2017-11-01T04:26:43.780Z,7.7
2017-11-01T04:27:42.286Z,7.7
2017-11-01T04:28:41.294Z,7.6
2017-11-01T04:29:41.074Z,7.6
2017-11-01T04:30:39.994Z,7.6
2017-11-01T04:31:39.161Z,7.6
2017-11-01T04:32:38.441Z,7.6
2017-11-01T04:33:37.201Z,7.6
2017-11-01T04:34:36.222Z,7.6
2017-11-01T04:35:35.522Z,7.6
2017-11-01T04:37:33.837Z,7.6
2017-11-01T04:38:32.349Z,7.6
2017-11-01T04:39:31.604Z,7.6
2017-11-01T04:40:30.886Z,7.6
2017-11-01T04:41:29.768Z,7.6
2017-11-01T04:42:28.917Z,7.6
2017-11-01T04:43:28.204Z,7.6
2017-11-01T04:44:27.346Z,7.6
2017-11-01T04:45:26.355Z,7.6
2017-11-01T04:46:25.500Z,7.5
2017-11-01T04:47:24.510Z,7.5
2017-11-01T04:48:23.654Z,7.5
2017-11-01T04:49:22.535Z,7.5
2017-11-01T04:50:22.187Z,7.5
2017-11-01T04:51:21.091Z,7.5
2017-11-01T04:52:19.735Z,7.5
2017-11-01T04:53:18.756Z,7.5
2017-11-01T04:54:18.259Z,7.5
2017-11-01T04:54:48.861Z,7.5
2017-11-01T04:55:19.319Z,7.5
2017-11-01T04:55:49.645Z,7.5
2017-11-01T04:56:20.609Z,7.5
2017-11-01T04:57:15.599Z,7.4
2017-11-01T04:58:14.615Z,7.5
2017-11-01T05:00:12.503Z,7.4
2017-11-01T05:01:11.909Z,7.4
2017-11-01T05:02:11.188Z,7.4
2017-11-01T05:03:09.959Z,7.4
2017-11-01T05:04:08.970Z,7.4
2017-11-01T05:05:08.363Z,7.4
2017-11-01T05:06:07.370Z,7.4
2017-11-01T05:07:06.518Z,7.4
2017-11-01T05:08:05.668Z,7.4
2017-11-01T05:09:04.679Z,7.4
2017-11-01T05:10:03.821Z,7.4
2017-11-01T05:11:02.970Z,7.4
2017-11-01T05:12:01.995Z,7.3
2017-11-01T05:13:01.416Z,7.3
2017-11-01T05:14:00.066Z,7.3
2017-11-01T05:14:59.080Z,7.3
2017-11-01T05:15:57.975Z,7.3
2017-11-01T05:16:57.500Z,7.3
2017-11-01T05:17:56.516Z,7.3
2017-11-01T05:18:55.537Z,7.3
2017-11-01T05:19:54.819Z,7.3
2017-11-01T05:20:53.845Z,7.3
2017-11-01T05:21:52.860Z,7.3
2017-11-01T05:22:51.878Z,7.2
2017-11-01T05:23:51.154Z,7.2
2017-11-01T05:24:50.434Z,7.2
2017-11-01T05:25:49.081Z,7.2
2017-11-01T05:26:48.233Z,7.2
2017-11-01T05:27:47.111Z,7.2
2017-11-01T05:29:45.653Z,7.2
2017-11-01T05:30:44.934Z,7.2
2017-11-01T05:31:43.679Z,7.2
2017-11-01T05:32:42.827Z,7.2
2017-11-01T05:33:41.622Z,7.2
2017-11-01T05:34:11.938Z,7.2
2017-11-01T05:34:42.262Z,7.2
2017-11-01T05:35:13.088Z,7.2
2017-11-01T05:35:43.544Z,7.2
2017-11-01T05:36:14.248Z,7.2
2017-11-01T05:36:44.820Z,7.2
2017-11-01T05:37:15.276Z,7.2
2017-11-01T05:39:36.583Z,7.2
2017-11-01T05:40:35.464Z,7.2
2017-11-01T05:41:34.605Z,7.2
2017-11-01T05:42:33.881Z,7.2
2017-11-01T05:43:33.023Z,7.2
2017-11-01T05:44:31.658Z,7.2
2017-11-01T05:45:31.069Z,7.2
2017-11-01T05:46:01.526Z,7.2
2017-11-01T05:46:31.755Z,7.2
2017-11-01T05:47:02.216Z,7.2
2017-11-01T05:47:32.541Z,7.2
2017-11-01T05:48:02.866Z,7.2
2017-11-01T05:49:27.679Z,7.2
2017-11-01T05:50:26.453Z,7.3
2017-11-01T05:51:25.460Z,7.3
2017-11-01T05:52:24.841Z,7.3
2017-11-01T05:53:23.621Z,7.3
2017-11-01T05:54:23.271Z,7.3
2017-11-01T05:55:22.023Z,7.3
2017-11-01T05:56:21.037Z,7.3
2017-11-01T05:57:20.336Z,7.3
2017-11-01T05:58:19.210Z,7.3
2017-11-01T05:59:18.600Z,7.3
2017-11-01T06:00:17.240Z,7.3
2017-11-01T06:01:16.389Z,7.3
2017-11-01T06:02:15.782Z,7.3
2017-11-01T06:03:14.940Z,7.3
2017-11-01T06:04:13.826Z,7.3
2017-11-01T06:05:13.116Z,7.3
2017-11-01T06:06:11.868Z,7.3
2017-11-01T06:07:11.261Z,7.3
2017-11-01T06:08:10.303Z,7.4
2017-11-01T06:09:09.082Z,7.4
2017-11-01T06:10:08.377Z,7.4
2017-11-01T06:11:07.401Z,7.4
2017-11-01T06:12:06.556Z,7.4
2017-11-01T06:13:05.700Z,7.4
2017-11-01T06:14:04.573Z,7.4
2017-11-01T06:15:03.857Z,7.4
2017-11-01T06:16:03.132Z,7.4
2017-11-01T06:16:33.584Z,7.4
2017-11-01T06:17:04.414Z,7.4
2017-11-01T06:17:35.132Z,7.4
2017-11-01T06:18:05.220Z,7.4
2017-11-01T06:18:35.542Z,7.4
2017-11-01T06:19:59.348Z,7.5
2017-11-01T06:20:58.249Z,7.5
2017-11-01T06:21:57.400Z,7.5
2017-11-01T06:22:56.281Z,7.5
2017-11-01T06:23:55.426Z,7.5
2017-11-01T06:24:54.810Z,7.5
2017-11-01T06:25:53.688Z,7.5
2017-11-01T06:26:24.290Z,7.5
2017-11-01T06:26:54.472Z,7.5
2017-11-01T06:27:25.166Z,7.5
2017-11-01T06:27:55.492Z,7.5
2017-11-01T06:28:25.813Z,7.5
2017-11-01T06:29:49.872Z,7.5
2017-11-01T06:30:49.160Z,7.5
2017-11-01T06:32:47.555Z,7.5
2017-11-01T06:33:46.189Z,7.5
2017-11-01T06:34:45.698Z,7.5
2017-11-01T06:35:44.970Z,7.5
2017-11-01T06:36:43.746Z,7.5
2017-11-01T06:37:42.917Z,7.5
2017-11-01T06:38:42.066Z,7.5
2017-11-01T06:39:41.080Z,7.5
2017-11-01T06:40:40.088Z,7.6
2017-11-01T06:41:39.108Z,7.6
2017-11-01T06:42:37.991Z,7.6
2017-11-01T06:43:37.633Z,7.6
2017-11-01T06:44:36.784Z,7.6
2017-11-01T06:45:35.519Z,7.6
2017-11-01T06:46:34.541Z,7.6
2017-11-01T06:47:33.815Z,7.6
2017-11-01T06:48:32.956Z,7.6
2017-11-01T06:49:32.245Z,7.7
2017-11-01T06:50:31.023Z,7.7
2017-11-01T06:51:30.411Z,7.7
2017-11-01T06:52:29.186Z,7.7
2017-11-01T06:53:28.465Z,7.7
2017-11-01T06:54:27.750Z,7.7
2017-11-01T06:55:26.392Z,7.7
2017-11-01T06:56:25.416Z,7.7
2017-11-01T06:57:25.092Z,7.7
2017-11-01T06:58:23.471Z,7.7
2017-11-01T06:59:22.630Z,7.7
2017-11-01T07:00:21.656Z,7.7
2017-11-01T07:01:21.054Z,7.7
2017-11-01T07:02:20.204Z,7.7
2017-11-01T07:03:19.232Z,7.7
2017-11-01T07:04:18.120Z,7.7
2017-11-01T07:05:17.779Z,7.7
2017-11-01T07:06:16.534Z,7.7
2017-11-01T07:07:15.563Z,7.7
2017-11-01T07:08:14.576Z,7.7
2017-11-01T07:09:13.870Z,7.7
2017-11-01T07:10:12.897Z,7.7
2017-11-01T07:12:11.062Z,7.8
2017-11-01T07:13:10.077Z,7.8
2017-11-01T07:14:09.094Z,7.8
2017-11-01T07:15:08.738Z,7.8
2017-11-01T07:16:07.644Z,7.8
2017-11-01T07:17:06.790Z,7.8
2017-11-01T07:18:05.942Z,7.8
2017-11-01T07:19:04.822Z,7.8
2017-11-01T07:20:03.976Z,7.8
2017-11-01T07:22:02.009Z,7.8
2017-11-01T07:23:01.009Z,7.9
2017-11-01T07:24:00.019Z,7.9
2017-11-01T07:24:59.176Z,7.9
2017-11-01T07:25:58.690Z,7.9
2017-11-01T07:26:57.700Z,7.9
2017-11-01T07:27:56.834Z,7.8
2017-11-01T07:28:55.842Z,7.9
2017-11-01T07:29:54.985Z,7.9
2017-11-01T07:30:53.759Z,7.9
2017-11-01T07:31:52.905Z,7.9
2017-11-01T07:32:52.052Z,7.9
2017-11-01T07:33:51.208Z,7.9
2017-11-01T07:34:50.361Z,7.9
2017-11-01T07:35:49.239Z,7.9
2017-11-01T07:36:48.252Z,7.9
2017-11-01T07:37:47.285Z,7.9
2017-11-01T07:38:46.565Z,7.9
2017-11-01T07:39:45.454Z,7.9
2017-11-01T07:40:44.975Z,7.9
2017-11-01T07:41:43.986Z,8
2017-11-01T07:42:43.264Z,7.9
2017-11-01T07:43:42.274Z,7.9
2017-11-01T07:44:41.427Z,7.9
2017-11-01T07:45:40.076Z,8
2017-11-01T07:46:39.352Z,8
2017-11-01T07:48:37.624Z,8
2017-11-01T07:49:36.880Z,8
2017-11-01T07:50:35.793Z,8
2017-11-01T07:51:35.051Z,8
2017-11-01T07:53:33.100Z,8
2017-11-01T07:54:32.116Z,8
2017-11-01T07:55:31.090Z,8
2017-11-01T07:56:30.368Z,8
2017-11-01T07:57:29.658Z,8
2017-11-01T07:58:28.669Z,8
2017-11-01T07:59:27.950Z,8.1
2017-11-01T08:00:26.979Z,8.1
2017-11-01T08:01:26.300Z,8.1
2017-11-01T08:02:24.965Z,8.1
2017-11-01T08:02:55.795Z,8.1
2017-11-01T08:03:26.118Z,8.1
2017-11-01T08:03:56.578Z,8.1
2017-11-01T08:04:26.909Z,8.1
2017-11-01T08:04:57.234Z,8.1
2017-11-01T08:06:21.667Z,8.1
2017-11-01T08:07:20.673Z,8.1
2017-11-01T08:08:19.821Z,8.1
2017-11-01T08:09:19.113Z,8.1
2017-11-01T08:10:17.753Z,8.1
2017-11-01T08:11:16.894Z,8.1
2017-11-01T08:12:15.904Z,8.1
2017-11-01T08:13:15.053Z,8.1
2017-11-01T08:14:14.198Z,8.1
2017-11-01T08:15:13.123Z,8.1
2017-11-01T08:16:12.509Z,8.1
2017-11-01T08:17:11.782Z,8.1
2017-11-01T08:18:10.827Z,8.1
2017-11-01T08:19:09.854Z,8.1
2017-11-01T08:20:09.135Z,8.1
2017-11-01T08:21:08.152Z,8.1
2017-11-01T08:22:06.954Z,8.1
2017-11-01T08:23:06.100Z,8.1
2017-11-01T08:24:05.108Z,8.1
2017-11-01T08:25:04.631Z,8.1
2017-11-01T08:26:03.407Z,8.1
2017-11-01T08:27:02.422Z,8.1
2017-11-01T08:28:01.436Z,8.1
2017-11-01T08:29:00.584Z,8.1
2017-11-01T08:29:59.862Z,8.1
2017-11-01T08:30:59.011Z,8.1
2017-11-01T08:31:58.158Z,8.1
2017-11-01T08:32:57.302Z,8.1
2017-11-01T08:33:56.450Z,8.1
2017-11-01T08:34:55.232Z,8.1
2017-11-01T08:35:54.504Z,8.1
2017-11-01T08:36:53.518Z,8.1
2017-11-01T08:37:52.669Z,8.1
2017-11-01T08:38:51.916Z,8.1
2017-11-01T08:39:51.057Z,8.1
2017-11-01T08:40:50.200Z,8.1
2017-11-01T08:41:49.289Z,8.1
2017-11-01T08:42:48.196Z,8.1
2017-11-01T08:43:47.351Z,8.1
2017-11-01T08:44:46.229Z,8.1
2017-11-01T08:45:16.683Z,8.1
2017-11-01T08:45:47.135Z,8.1
2017-11-01T08:46:17.196Z,8.1
2017-11-01T08:47:43.888Z,8.1
2017-11-01T08:48:42.901Z,8.1
2017-11-01T08:49:41.808Z,8.1
2017-11-01T08:50:40.824Z,8.2
2017-11-01T08:51:40.330Z,8.2
2017-11-01T08:52:39.220Z,8.2
2017-11-01T08:53:38.239Z,8.1
2017-11-01T08:54:37.257Z,8.2
2017-11-01T08:55:36.540Z,8.2
2017-11-01T08:56:06.624Z,8.2
2017-11-01T08:56:36.957Z,8.2
2017-11-01T08:57:07.289Z,8.2
2017-11-01T08:58:34.117Z,8.2
2017-11-01T08:59:32.765Z,8.2
2017-11-01T09:00:31.908Z,8.2
2017-11-01T09:01:31.059Z,8.1
2017-11-01T09:02:30.599Z,8.2
2017-11-01T09:03:29.491Z,8.2
2017-11-01T09:04:28.642Z,8.2
2017-11-01T09:05:27.423Z,8.2
2017-11-01T09:06:26.712Z,8.2
2017-11-01T09:07:25.988Z,8.1
2017-11-01T09:08:24.893Z,8.1
2017-11-01T09:09:24.054Z,8.2
2017-11-01T09:10:23.202Z,8.2
2017-11-01T09:11:22.225Z,8.2
2017-11-01T09:12:21.377Z,8.2
2017-11-01T09:13:20.536Z,8.2
2017-11-01T09:14:19.558Z,8.2
2017-11-01T09:15:18.708Z,8.2
2017-11-01T09:16:17.744Z,8.2
2017-11-01T09:17:16.762Z,8.2
2017-11-01T09:18:15.900Z,8.2
2017-11-01T09:19:14.911Z,8.2
2017-11-01T09:20:14.197Z,8.2
2017-11-01T09:21:13.074Z,8.2
2017-11-01T09:22:12.726Z,8.2
2017-11-01T09:23:11.637Z,8.2
2017-11-01T09:24:10.655Z,8.2
2017-11-01T09:25:09.675Z,8.2
2017-11-01T09:26:09.189Z,8.2
2017-11-01T09:27:08.330Z,8.2
2017-11-01T09:27:38.524Z,8.2
2017-11-01T09:28:08.852Z,8.2
2017-11-01T09:29:06.114Z,8.2
2017-11-01T09:30:05.133Z,8.2
2017-11-01T09:31:04.537Z,8.2
2017-11-01T09:32:03.543Z,8.2
2017-11-01T09:33:02.836Z,8.2
2017-11-01T09:34:01.351Z,8.2
2017-11-01T09:35:00.761Z,8.3
2017-11-01T09:35:59.906Z,8.3
2017-11-01T09:36:59.187Z,8.3
2017-11-01T09:37:58.198Z,8.3
2017-11-01T09:38:57.215Z,8.3
2017-11-01T09:39:56.217Z,8.3
2017-11-01T09:40:55.354Z,8.3
2017-11-01T09:42:53.517Z,8.3
2017-11-01T09:43:52.551Z,8.4
2017-11-01T09:44:51.687Z,8.4
2017-11-01T09:45:51.199Z,8.4
2017-11-01T09:46:49.981Z,8.4
2017-11-01T09:47:48.995Z,8.4
2017-11-01T09:48:48.506Z,8.4
2017-11-01T09:50:46.412Z,8.4
2017-11-01T09:51:45.824Z,8.5
2017-11-01T09:52:44.741Z,8.5
2017-11-01T09:53:44.019Z,8.5
2017-11-01T09:54:43.295Z,8.5
2017-11-01T09:55:42.074Z,8.5
2017-11-01T09:57:40.601Z,8.5
2017-11-01T09:58:39.242Z,8.5
2017-11-01T09:59:38.391Z,8.5
2017-11-01T10:00:37.916Z,8.6
2017-11-01T10:01:36.570Z,8.6
2017-11-01T10:02:35.943Z,8.6
2017-11-01T10:03:34.981Z,8.6
2017-11-01T10:04:33.862Z,8.6
2017-11-01T10:05:33.382Z,8.6
2017-11-01T10:06:32.523Z,8.6
2017-11-01T10:07:31.300Z,8.6
2017-11-01T10:08:30.320Z,8.7
2017-11-01T10:09:29.971Z,8.6
2017-11-01T10:10:28.758Z,8.7
2017-11-01T10:11:28.171Z,8.7
2017-11-01T10:12:27.183Z,8.7
2017-11-01T10:13:26.065Z,8.7
2017-11-01T10:14:25.476Z,8.7
2017-11-01T10:15:23.987Z,8.7
2017-11-01T10:16:23.521Z,8.7
2017-11-01T10:17:22.520Z,8.7
2017-11-01T10:18:21.668Z,8.7
2017-11-01T10:19:20.809Z,8.7
2017-11-01T10:20:19.818Z,8.7
2017-11-01T10:21:18.831Z,8.8
2017-11-01T10:21:49.304Z,8.8
2017-11-01T10:22:20.055Z,8.8
2017-11-01T10:23:16.931Z,8.8
2017-11-01T10:24:16.234Z,8.8
2017-11-01T10:25:15.489Z,8.8
2017-11-01T10:26:14.506Z,8.8
2017-11-01T10:27:13.919Z,8.8
2017-11-01T10:28:12.435Z,8.9
2017-11-01T10:30:10.844Z,8.9
2017-11-01T10:31:10.258Z,8.9
2017-11-01T10:32:08.908Z,8.9
2017-11-01T10:33:08.074Z,9
2017-11-01T10:34:07.354Z,9
2017-11-01T10:35:06.497Z,9
2017-11-01T10:36:05.884Z,9
2017-11-01T10:38:03.908Z,9.1
2017-11-01T10:39:03.059Z,9.1
2017-11-01T10:40:01.937Z,9.1
2017-11-01T10:41:01.089Z,9.1
2017-11-01T10:42:00.237Z,9.1
2017-11-01T10:42:59.517Z,9.2
2017-11-01T10:43:58.423Z,9.2
2017-11-01T10:44:57.853Z,9.2
2017-11-01T10:45:56.501Z,9.2
2017-11-01T10:46:55.650Z,9.3
2017-11-01T10:47:54.924Z,9.3
2017-11-01T10:48:54.075Z,9.3
2017-11-01T10:49:53.091Z,9.3
2017-11-01T10:50:52.111Z,9.3
2017-11-01T10:51:51.254Z,9.4
2017-11-01T10:52:50.770Z,9.4
2017-11-01T10:53:49.779Z,9.4
2017-11-01T10:54:48.553Z,9.5
2017-11-01T10:55:47.842Z,9.5
2017-11-01T10:56:47.362Z,9.5
2017-11-01T10:57:46.005Z,9.6
2017-11-01T10:58:45.517Z,9.6
2017-11-01T10:59:44.559Z,9.6
2017-11-01T11:00:43.710Z,9.7
2017-11-01T11:01:42.454Z,9.7
2017-11-01T11:02:41.865Z,9.7
2017-11-01T11:03:40.888Z,9.7
2017-11-01T11:04:40.402Z,9.7
2017-11-01T11:05:39.560Z,9.8
2017-11-01T11:06:38.479Z,9.8
2017-11-01T11:07:37.633Z,9.8
2017-11-01T11:08:36.653Z,9.9
2017-11-01T11:09:35.669Z,9.9
2017-11-01T11:10:34.959Z,9.9
2017-11-01T11:11:33.981Z,9.9
2017-11-01T11:12:33.132Z,9.9
2017-11-01T11:13:32.288Z,10
2017-11-01T11:14:31.434Z,10
2017-11-01T11:15:30.458Z,10
2017-11-01T11:16:29.747Z,10
2017-11-01T11:17:28.894Z,10
2017-11-01T11:18:27.785Z,10
2017-11-01T11:19:27.207Z,10.1
2017-11-01T11:20:26.225Z,10.1
2017-11-01T11:21:25.377Z,10.1
2017-11-01T11:22:24.546Z,10.1
2017-11-01T11:23:23.427Z,10.1
2017-11-01T11:24:22.820Z,10.1
2017-11-01T11:25:22.105Z,10.1
2017-11-01T11:26:20.856Z,10.1
2017-11-01T11:27:19.869Z,10.1
2017-11-01T11:28:19.516Z,10.2
2017-11-01T11:29:18.153Z,10.2
2017-11-01T11:30:17.677Z,10.1
2017-11-01T11:31:16.830Z,10.2
2017-11-01T11:32:15.841Z,10.2
2017-11-01T11:33:14.853Z,10.2
2017-11-01T11:34:14.366Z,10.2
2017-11-01T11:35:13.154Z,10.2
2017-11-01T11:36:12.304Z,10.2
2017-11-01T11:37:11.449Z,10.2
2017-11-01T11:38:10.483Z,10.2
2017-11-01T11:39:09.870Z,10.2
2017-11-01T11:40:09.017Z,10.2
2017-11-01T11:41:08.027Z,10.3
2017-11-01T11:42:07.169Z,10.2
2017-11-01T11:43:06.184Z,10.2
2017-11-01T11:44:05.201Z,10.2
2017-11-01T11:45:04.478Z,10.2
2017-11-01T11:46:03.769Z,10.2
2017-11-01T11:47:02.783Z,10.2
2017-11-01T11:48:02.062Z,10.2
2017-11-01T11:49:01.081Z,10.2
2017-11-01T11:50:00.491Z,10.2
2017-11-01T11:50:59.473Z,10.2
2017-11-01T11:51:30.306Z,10.2
2017-11-01T11:52:00.633Z,10.2
2017-11-01T11:52:31.219Z,10.2
2017-11-01T11:54:55.916Z,10.2
2017-11-01T11:55:55.296Z,10.2
2017-11-01T11:56:54.712Z,10.2
2017-11-01T11:57:53.508Z,10.2
2017-11-01T11:58:52.640Z,10.2
2017-11-01T11:59:51.779Z,10.2
2017-11-01T12:00:51.059Z,10.2
2017-11-01T12:01:49.943Z,10.3
2017-11-01T12:02:49.485Z,10.2
2017-11-01T12:03:48.368Z,10.2
2017-11-01T12:04:47.291Z,10.2
2017-11-01T12:05:46.437Z,10.2
2017-11-01T12:06:45.826Z,10.2
2017-11-01T12:07:45.119Z,10.2
2017-11-01T12:08:43.891Z,10.2
2017-11-01T12:09:43.164Z,10.2
2017-11-01T12:10:42.193Z,10.2
2017-11-01T12:11:41.852Z,10.2
2017-11-01T12:12:40.631Z,10.2
2017-11-01T12:13:39.947Z,10.3
2017-11-01T12:14:38.720Z,10.3
2017-11-01T12:15:37.863Z,10.3
2017-11-01T12:16:37.006Z,10.3
2017-11-01T12:17:36.291Z,10.3
2017-11-01T12:18:35.440Z,10.3
2017-11-01T12:19:34.583Z,10.3
2017-11-01T12:20:33.839Z,10.3
2017-11-01T12:21:33.246Z,10.3
2017-11-01T12:22:31.895Z,10.3
2017-11-01T12:23:31.044Z,10.4
2017-11-01T12:24:30.556Z,10.4
2017-11-01T12:25:29.740Z,10.4
2017-11-01T12:26:28.552Z,10.4
2017-11-01T12:27:27.585Z,10.4
2017-11-01T12:28:26.887Z,10.4
2017-11-01T12:29:25.904Z,10.4
2017-11-01T12:30:25.057Z,10.5
2017-11-01T12:31:24.451Z,10.5
2017-11-01T12:32:23.471Z,10.5
2017-11-01T12:32:53.675Z,10.5
2017-11-01T12:33:24.274Z,10.5
2017-11-01T12:33:54.733Z,10.5
2017-11-01T12:34:24.933Z,10.5
2017-11-01T12:34:55.536Z,10.5
2017-11-01T12:35:25.996Z,10.5
2017-11-01T12:35:55.953Z,10.5
2017-11-01T12:37:19.276Z,10.5
2017-11-01T12:38:18.159Z,10.5
2017-11-01T12:39:17.439Z,10.5
2017-11-01T12:40:16.468Z,10.5
2017-11-01T12:41:15.672Z,10.5
2017-11-01T12:42:15.063Z,10.5
2017-11-01T12:43:14.361Z,10.5
2017-11-01T12:44:13.278Z,10.5
2017-11-01T12:45:12.568Z,10.5
2017-11-01T12:45:42.929Z,10.5
2017-11-01T12:47:10.900Z,10.5
2017-11-01T12:48:09.920Z,10.6
2017-11-01T12:49:09.192Z,10.6
2017-11-01T12:50:08.206Z,10.6
2017-11-01T12:51:07.649Z,10.6
2017-11-01T12:52:06.305Z,10.6
2017-11-01T12:53:05.826Z,10.6
2017-11-01T12:54:04.841Z,10.6
2017-11-01T12:55:04.124Z,10.6
2017-11-01T12:56:03.036Z,10.6
2017-11-01T12:57:02.057Z,10.6
2017-11-01T12:58:01.327Z,10.6
2017-11-01T12:59:00.229Z,10.6
2017-11-01T12:59:59.741Z,10.6
2017-11-01T13:00:58.890Z,10.6
2017-11-01T13:01:57.901Z,10.6
2017-11-01T13:02:57.171Z,10.6
2017-11-01T13:03:56.312Z,10.6
2017-11-01T13:04:55.588Z,10.6
2017-11-01T13:05:54.228Z,10.6
2017-11-01T13:06:53.741Z,10.6
2017-11-01T13:07:52.624Z,10.6
2017-11-01T13:08:52.283Z,10.6
2017-11-01T13:09:51.292Z,10.6
2017-11-01T13:10:50.310Z,10.6
2017-11-01T13:11:49.190Z,10.6
2017-11-01T13:12:48.574Z,10.6
2017-11-01T13:13:47.711Z,10.6
2017-11-01T13:14:46.873Z,10.6
2017-11-01T13:15:45.886Z,10.6
2017-11-01T13:16:44.901Z,10.6
2017-11-01T13:17:44.320Z,10.6
2017-11-01T13:18:43.329Z,10.6
2017-11-01T13:19:42.584Z,10.6
2017-11-01T13:20:41.969Z,10.6
2017-11-01T13:21:40.996Z,10.6
2017-11-01T13:22:40.293Z,10.6
2017-11-01T13:23:39.330Z,10.6
2017-11-01T13:24:38.487Z,10.6
2017-11-01T13:25:37.511Z,10.6
2017-11-01T13:26:36.763Z,10.6
2017-11-01T13:27:35.782Z,10.6
2017-11-01T13:28:35.071Z,10.6
2017-11-01T13:30:33.263Z,10.6
2017-11-01T13:31:32.271Z,10.6
2017-11-01T13:32:31.656Z,10.6
2017-11-01T13:33:31.072Z,10.6
2017-11-01T13:34:29.953Z,10.6
2017-11-01T13:35:28.971Z,10.6
2017-11-01T13:36:28.107Z,10.6